sensor_id;sensor_type;location;lat;lon;timestamp;P1;durP1;ratioP1;P2;durP2;ratioP2
32760;SDS011;19126;47.472;7.850;2024-01-30T00:00:11;36.05;;;20.92;;
32760;SDS011;19126;47.472;7.850;2024-01-30T00:02:41;35.33;;;20.83;;
32760;SDS011;19126;47.472;7.850;2024-01-30T00:05:11;49.22;;;23.55;;
32760;SDS011;19126;47.472;7.850;2024-01-30T00:07:38;46.70;;;24.05;;
32760;SDS011;19126;47.472;7.850;2024-01-30T00:10:05;42.13;;;21.13;;
32760;SDS011;19126;47.472;7.850;2024-01-30T00:12:35;35.97;;;20.63;;
32760;SDS011;19126;47.472;7.850;2024-01-30T00:15:02;39.08;;;22.60;;
32760;SDS011;19126;47.472;7.850;2024-01-30T00:17:33;35.25;;;20.55;;
32760;SDS011;19126;47.472;7.850;2024-01-30T00:20:01;41.67;;;20.60;;
32760;SDS011;19126;47.472;7.850;2024-01-30T00:22:30;32.60;;;19.33;;
32760;SDS011;19126;47.472;7.850;2024-01-30T00:24:58;41.00;;;21.58;;
32760;SDS011;19126;47.472;7.850;2024-01-30T00:27:25;36.50;;;19.30;;
32760;SDS011;19126;47.472;7.850;2024-01-30T00:29:55;33.35;;;20.33;;
32760;SDS011;19126;47.472;7.850;2024-01-30T00:32:22;37.25;;;21.15;;
32760;SDS011;19126;47.472;7.850;2024-01-30T00:34:50;36.28;;;20.33;;
32760;SDS011;19126;47.472;7.850;2024-01-30T00:37:17;32.60;;;19.60;;
32760;SDS011;19126;47.472;7.850;2024-01-30T00:39:44;37.92;;;19.98;;
32760;SDS011;19126;47.472;7.850;2024-01-30T00:42:12;33.42;;;18.27;;
32760;SDS011;19126;47.472;7.850;2024-01-30T00:44:39;33.60;;;19.88;;
32760;SDS011;19126;47.472;7.850;2024-01-30T00:47:08;35.90;;;18.75;;
32760;SDS011;19126;47.472;7.850;2024-01-30T00:49:36;35.28;;;19.35;;
32760;SDS011;19126;47.472;7.850;2024-01-30T00:52:04;32.50;;;18.85;;
32760;SDS011;19126;47.472;7.850;2024-01-30T00:54:32;39.30;;;22.55;;
32760;SDS011;19126;47.472;7.850;2024-01-30T00:56:59;38.03;;;20.73;;
32760;SDS011;19126;47.472;7.850;2024-01-30T00:59:27;37.45;;;20.48;;
32760;SDS011;19126;47.472;7.850;2024-01-30T01:01:54;40.05;;;21.52;;
32760;SDS011;19126;47.472;7.850;2024-01-30T01:04:23;37.15;;;22.08;;
32760;SDS011;19126;47.472;7.850;2024-01-30T01:06:51;34.30;;;20.20;;
32760;SDS011;19126;47.472;7.850;2024-01-30T01:09:19;36.00;;;19.63;;
32760;SDS011;19126;47.472;7.850;2024-01-30T01:11:46;35.88;;;19.40;;
32760;SDS011;19126;47.472;7.850;2024-01-30T01:14:14;36.22;;;21.60;;
32760;SDS011;19126;47.472;7.850;2024-01-30T01:16:41;40.05;;;21.23;;
32760;SDS011;19126;47.472;7.850;2024-01-30T01:19:09;36.50;;;20.67;;
32760;SDS011;19126;47.472;7.850;2024-01-30T01:21:38;35.67;;;21.10;;
32760;SDS011;19126;47.472;7.850;2024-01-30T01:24:05;35.53;;;20.38;;
32760;SDS011;19126;47.472;7.850;2024-01-30T01:26:32;34.60;;;21.27;;
32760;SDS011;19126;47.472;7.850;2024-01-30T01:29:00;37.72;;;21.05;;
32760;SDS011;19126;47.472;7.850;2024-01-30T01:31:29;36.60;;;21.73;;
32760;SDS011;19126;47.472;7.850;2024-01-30T01:33:56;33.85;;;20.38;;
32760;SDS011;19126;47.472;7.850;2024-01-30T01:36:24;35.65;;;20.95;;
32760;SDS011;19126;47.472;7.850;2024-01-30T01:38:53;37.20;;;21.58;;
32760;SDS011;19126;47.472;7.850;2024-01-30T01:41:20;36.13;;;21.77;;
32760;SDS011;19126;47.472;7.850;2024-01-30T01:43:47;34.35;;;19.77;;
32760;SDS011;19126;47.472;7.850;2024-01-30T01:46:15;34.60;;;21.20;;
32760;SDS011;19126;47.472;7.850;2024-01-30T01:48:43;40.58;;;20.88;;
32760;SDS011;19126;47.472;7.850;2024-01-30T01:51:12;31.17;;;19.08;;
32760;SDS011;19126;47.472;7.850;2024-01-30T01:53:40;40.88;;;19.70;;
32760;SDS011;19126;47.472;7.850;2024-01-30T01:56:09;37.50;;;21.10;;
32760;SDS011;19126;47.472;7.850;2024-01-30T01:58:37;33.22;;;20.45;;
32760;SDS011;19126;47.472;7.850;2024-01-30T02:01:05;35.55;;;19.67;;
32760;SDS011;19126;47.472;7.850;2024-01-30T02:03:34;32.25;;;20.27;;
32760;SDS011;19126;47.472;7.850;2024-01-30T02:06:02;32.25;;;18.15;;
32760;SDS011;19126;47.472;7.850;2024-01-30T02:08:30;33.38;;;19.00;;
32760;SDS011;19126;47.472;7.850;2024-01-30T02:10:58;30.52;;;18.25;;
32760;SDS011;19126;47.472;7.850;2024-01-30T02:13:27;31.60;;;17.88;;
32760;SDS011;19126;47.472;7.850;2024-01-30T02:15:54;33.28;;;19.00;;
32760;SDS011;19126;47.472;7.850;2024-01-30T02:18:22;36.30;;;20.63;;
32760;SDS011;19126;47.472;7.850;2024-01-30T02:20:50;27.90;;;17.42;;
32760;SDS011;19126;47.472;7.850;2024-01-30T02:23:23;33.97;;;18.65;;
32760;SDS011;19126;47.472;7.850;2024-01-30T02:25:52;31.25;;;19.10;;
32760;SDS011;19126;47.472;7.850;2024-01-30T02:28:20;35.33;;;19.90;;
32760;SDS011;19126;47.472;7.850;2024-01-30T02:30:47;36.78;;;20.25;;
32760;SDS011;19126;47.472;7.850;2024-01-30T02:33:15;32.40;;;19.67;;
32760;SDS011;19126;47.472;7.850;2024-01-30T02:35:42;34.55;;;19.48;;
32760;SDS011;19126;47.472;7.850;2024-01-30T02:38:10;33.60;;;18.92;;
32760;SDS011;19126;47.472;7.850;2024-01-30T02:40:38;30.58;;;18.42;;
32760;SDS011;19126;47.472;7.850;2024-01-30T02:43:06;29.23;;;18.65;;
32760;SDS011;19126;47.472;7.850;2024-01-30T02:45:34;32.53;;;18.45;;
32760;SDS011;19126;47.472;7.850;2024-01-30T02:48:01;32.05;;;19.42;;
32760;SDS011;19126;47.472;7.850;2024-01-30T02:50:29;39.15;;;21.73;;
32760;SDS011;19126;47.472;7.850;2024-01-30T02:52:56;37.88;;;20.67;;
32760;SDS011;19126;47.472;7.850;2024-01-30T02:55:24;31.15;;;20.00;;
32760;SDS011;19126;47.472;7.850;2024-01-30T02:57:52;37.50;;;21.70;;
32760;SDS011;19126;47.472;7.850;2024-01-30T03:00:20;34.50;;;20.25;;
32760;SDS011;19126;47.472;7.850;2024-01-30T03:02:47;38.13;;;19.95;;
32760;SDS011;19126;47.472;7.850;2024-01-30T03:05:14;33.63;;;18.48;;
32760;SDS011;19126;47.472;7.850;2024-01-30T03:07:42;32.35;;;19.20;;
32760;SDS011;19126;47.472;7.850;2024-01-30T03:10:09;30.95;;;19.27;;
32760;SDS011;19126;47.472;7.850;2024-01-30T03:12:37;39.80;;;21.33;;
32760;SDS011;19126;47.472;7.850;2024-01-30T03:15:06;39.22;;;20.88;;
32760;SDS011;19126;47.472;7.850;2024-01-30T03:17:34;34.80;;;19.77;;
32760;SDS011;19126;47.472;7.850;2024-01-30T03:20:03;35.22;;;19.88;;
32760;SDS011;19126;47.472;7.850;2024-01-30T03:22:32;37.33;;;21.70;;
32760;SDS011;19126;47.472;7.850;2024-01-30T03:25:00;33.67;;;19.60;;
32760;SDS011;19126;47.472;7.850;2024-01-30T03:27:27;34.08;;;20.25;;
32760;SDS011;19126;47.472;7.850;2024-01-30T03:29:55;40.65;;;20.48;;
32760;SDS011;19126;47.472;7.850;2024-01-30T03:32:24;37.35;;;21.63;;
32760;SDS011;19126;47.472;7.850;2024-01-30T03:34:51;34.63;;;20.33;;
32760;SDS011;19126;47.472;7.850;2024-01-30T03:37:19;35.55;;;20.35;;
32760;SDS011;19126;47.472;7.850;2024-01-30T03:39:46;35.63;;;21.10;;
32760;SDS011;19126;47.472;7.850;2024-01-30T03:42:13;35.35;;;20.42;;
32760;SDS011;19126;47.472;7.850;2024-01-30T03:44:41;35.50;;;21.02;;
32760;SDS011;19126;47.472;7.850;2024-01-30T03:47:09;34.92;;;20.33;;
32760;SDS011;19126;47.472;7.850;2024-01-30T03:49:38;32.63;;;18.25;;
32760;SDS011;19126;47.472;7.850;2024-01-30T03:52:06;32.78;;;18.75;;
32760;SDS011;19126;47.472;7.850;2024-01-30T03:54:33;30.67;;;18.08;;
32760;SDS011;19126;47.472;7.850;2024-01-30T03:57:00;34.13;;;20.08;;
32760;SDS011;19126;47.472;7.850;2024-01-30T03:59:28;34.17;;;20.67;;
32760;SDS011;19126;47.472;7.850;2024-01-30T04:01:55;32.60;;;20.13;;
32760;SDS011;19126;47.472;7.850;2024-01-30T04:04:23;40.67;;;22.38;;
32760;SDS011;19126;47.472;7.850;2024-01-30T04:06:51;37.53;;;20.75;;
32760;SDS011;19126;47.472;7.850;2024-01-30T04:09:19;35.78;;;20.75;;
32760;SDS011;19126;47.472;7.850;2024-01-30T04:11:46;35.70;;;20.40;;
32760;SDS011;19126;47.472;7.850;2024-01-30T04:14:13;38.25;;;21.55;;
32760;SDS011;19126;47.472;7.850;2024-01-30T04:16:41;40.28;;;20.45;;
32760;SDS011;19126;47.472;7.850;2024-01-30T04:19:08;32.97;;;20.13;;
32760;SDS011;19126;47.472;7.850;2024-01-30T04:21:36;37.55;;;20.92;;
32760;SDS011;19126;47.472;7.850;2024-01-30T04:24:05;39.30;;;20.48;;
32760;SDS011;19126;47.472;7.850;2024-01-30T04:26:32;35.90;;;20.58;;
32760;SDS011;19126;47.472;7.850;2024-01-30T04:29:00;39.58;;;20.42;;
32760;SDS011;19126;47.472;7.850;2024-01-30T04:31:27;33.20;;;19.50;;
32760;SDS011;19126;47.472;7.850;2024-01-30T04:33:54;35.60;;;20.60;;
32760;SDS011;19126;47.472;7.850;2024-01-30T04:36:21;35.60;;;18.90;;
32760;SDS011;19126;47.472;7.850;2024-01-30T04:38:49;38.47;;;21.00;;
32760;SDS011;19126;47.472;7.850;2024-01-30T04:41:17;32.67;;;20.60;;
32760;SDS011;19126;47.472;7.850;2024-01-30T04:43:45;36.50;;;20.30;;
32760;SDS011;19126;47.472;7.850;2024-01-30T04:46:12;36.17;;;20.15;;
32760;SDS011;19126;47.472;7.850;2024-01-30T04:48:40;40.58;;;21.67;;
32760;SDS011;19126;47.472;7.850;2024-01-30T04:51:07;36.05;;;20.73;;
32760;SDS011;19126;47.472;7.850;2024-01-30T04:53:35;35.75;;;21.25;;
32760;SDS011;19126;47.472;7.850;2024-01-30T04:56:02;39.92;;;21.75;;
32760;SDS011;19126;47.472;7.850;2024-01-30T04:58:32;42.08;;;22.45;;
32760;SDS011;19126;47.472;7.850;2024-01-30T05:01:00;37.55;;;21.83;;
32760;SDS011;19126;47.472;7.850;2024-01-30T05:03:28;33.13;;;19.35;;
32760;SDS011;19126;47.472;7.850;2024-01-30T05:05:59;41.30;;;23.07;;
32760;SDS011;19126;47.472;7.850;2024-01-30T05:08:26;35.42;;;20.95;;
32760;SDS011;19126;47.472;7.850;2024-01-30T05:10:53;37.67;;;21.73;;
32760;SDS011;19126;47.472;7.850;2024-01-30T05:13:21;42.53;;;22.88;;
32760;SDS011;19126;47.472;7.850;2024-01-30T05:15:49;43.90;;;23.65;;
32760;SDS011;19126;47.472;7.850;2024-01-30T05:18:17;38.88;;;23.27;;
32760;SDS011;19126;47.472;7.850;2024-01-30T05:20:44;46.92;;;26.40;;
32760;SDS011;19126;47.472;7.850;2024-01-30T05:23:12;44.40;;;24.42;;
32760;SDS011;19126;47.472;7.850;2024-01-30T05:25:39;38.05;;;22.98;;
32760;SDS011;19126;47.472;7.850;2024-01-30T05:28:07;42.97;;;23.85;;
32760;SDS011;19126;47.472;7.850;2024-01-30T05:30:34;49.53;;;24.73;;
32760;SDS011;19126;47.472;7.850;2024-01-30T05:33:03;43.67;;;23.65;;
32760;SDS011;19126;47.472;7.850;2024-01-30T05:35:31;35.22;;;21.73;;
32760;SDS011;19126;47.472;7.850;2024-01-30T05:37:58;41.90;;;23.63;;
32760;SDS011;19126;47.472;7.850;2024-01-30T05:40:25;44.10;;;22.33;;
32760;SDS011;19126;47.472;7.850;2024-01-30T05:42:53;47.33;;;24.63;;
32760;SDS011;19126;47.472;7.850;2024-01-30T05:45:21;44.00;;;24.42;;
32760;SDS011;19126;47.472;7.850;2024-01-30T05:47:48;44.53;;;25.10;;
32760;SDS011;19126;47.472;7.850;2024-01-30T05:50:17;43.58;;;24.95;;
32760;SDS011;19126;47.472;7.850;2024-01-30T05:52:45;39.38;;;22.55;;
32760;SDS011;19126;47.472;7.850;2024-01-30T05:55:12;40.45;;;24.23;;
32760;SDS011;19126;47.472;7.850;2024-01-30T05:57:40;41.10;;;23.10;;
32760;SDS011;19126;47.472;7.850;2024-01-30T06:00:07;51.72;;;26.00;;
32760;SDS011;19126;47.472;7.850;2024-01-30T06:02:35;48.45;;;25.50;;
32760;SDS011;19126;47.472;7.850;2024-01-30T06:05:03;46.42;;;25.13;;
32760;SDS011;19126;47.472;7.850;2024-01-30T06:07:32;47.78;;;25.75;;
32760;SDS011;19126;47.472;7.850;2024-01-30T06:10:00;52.10;;;26.50;;
32760;SDS011;19126;47.472;7.850;2024-01-30T06:12:28;52.67;;;26.98;;
32760;SDS011;19126;47.472;7.850;2024-01-30T06:14:55;66.03;;;30.92;;
32760;SDS011;19126;47.472;7.850;2024-01-30T06:17:23;51.15;;;26.60;;
32760;SDS011;19126;47.472;7.850;2024-01-30T06:19:50;62.00;;;31.58;;
32760;SDS011;19126;47.472;7.850;2024-01-30T06:22:18;60.53;;;29.38;;
32760;SDS011;19126;47.472;7.850;2024-01-30T06:24:47;50.03;;;27.88;;
32760;SDS011;19126;47.472;7.850;2024-01-30T06:27:14;53.63;;;25.95;;
32760;SDS011;19126;47.472;7.850;2024-01-30T06:29:42;48.65;;;25.60;;
32760;SDS011;19126;47.472;7.850;2024-01-30T06:32:10;45.70;;;25.65;;
32760;SDS011;19126;47.472;7.850;2024-01-30T06:34:38;46.40;;;25.88;;
32760;SDS011;19126;47.472;7.850;2024-01-30T06:37:05;47.50;;;23.42;;
32760;SDS011;19126;47.472;7.850;2024-01-30T06:39:33;46.88;;;23.42;;
32760;SDS011;19126;47.472;7.850;2024-01-30T06:42:01;43.50;;;22.88;;
32760;SDS011;19126;47.472;7.850;2024-01-30T06:44:30;44.90;;;24.10;;
32760;SDS011;19126;47.472;7.850;2024-01-30T06:46:57;36.33;;;22.65;;
32760;SDS011;19126;47.472;7.850;2024-01-30T06:49:24;42.88;;;24.85;;
32760;SDS011;19126;47.472;7.850;2024-01-30T06:51:52;39.22;;;22.50;;
32760;SDS011;19126;47.472;7.850;2024-01-30T06:54:20;47.83;;;24.55;;
32760;SDS011;19126;47.472;7.850;2024-01-30T06:56:47;42.13;;;23.98;;
32760;SDS011;19126;47.472;7.850;2024-01-30T06:59:16;40.25;;;23.08;;
32760;SDS011;19126;47.472;7.850;2024-01-30T07:01:43;41.55;;;24.00;;
32760;SDS011;19126;47.472;7.850;2024-01-30T07:04:11;35.17;;;21.08;;
32760;SDS011;19126;47.472;7.850;2024-01-30T07:06:38;47.60;;;23.77;;
32760;SDS011;19126;47.472;7.850;2024-01-30T07:09:06;44.55;;;24.35;;
32760;SDS011;19126;47.472;7.850;2024-01-30T07:11:34;52.33;;;25.70;;
32760;SDS011;19126;47.472;7.850;2024-01-30T07:14:02;44.58;;;23.85;;
32760;SDS011;19126;47.472;7.850;2024-01-30T07:16:31;48.75;;;23.60;;
32760;SDS011;19126;47.472;7.850;2024-01-30T07:18:59;56.90;;;27.33;;
32760;SDS011;19126;47.472;7.850;2024-01-30T07:21:26;56.13;;;27.42;;
32760;SDS011;19126;47.472;7.850;2024-01-30T07:23:53;48.35;;;26.15;;
32760;SDS011;19126;47.472;7.850;2024-01-30T07:26:21;47.17;;;25.95;;
32760;SDS011;19126;47.472;7.850;2024-01-30T07:28:48;41.53;;;24.67;;
32760;SDS011;19126;47.472;7.850;2024-01-30T07:31:16;45.05;;;25.83;;
32760;SDS011;19126;47.472;7.850;2024-01-30T07:33:49;47.08;;;25.02;;
32760;SDS011;19126;47.472;7.850;2024-01-30T07:36:17;51.40;;;26.60;;
32760;SDS011;19126;47.472;7.850;2024-01-30T07:38:44;51.75;;;27.10;;
32760;SDS011;19126;47.472;7.850;2024-01-30T07:41:12;57.65;;;27.45;;
32760;SDS011;19126;47.472;7.850;2024-01-30T07:43:39;48.28;;;26.17;;
32760;SDS011;19126;47.472;7.850;2024-01-30T07:46:06;47.65;;;27.75;;
32760;SDS011;19126;47.472;7.850;2024-01-30T07:48:34;49.03;;;27.30;;
32760;SDS011;19126;47.472;7.850;2024-01-30T07:51:03;57.38;;;30.38;;
32760;SDS011;19126;47.472;7.850;2024-01-30T07:53:30;55.92;;;29.23;;
32760;SDS011;19126;47.472;7.850;2024-01-30T07:55:57;52.15;;;27.92;;
32760;SDS011;19126;47.472;7.850;2024-01-30T07:58:25;63.88;;;30.35;;
32760;SDS011;19126;47.472;7.850;2024-01-30T08:00:53;53.28;;;28.63;;
32760;SDS011;19126;47.472;7.850;2024-01-30T08:03:23;51.55;;;29.55;;
32760;SDS011;19126;47.472;7.850;2024-01-30T08:05:50;57.20;;;31.27;;
32760;SDS011;19126;47.472;7.850;2024-01-30T08:08:19;53.45;;;29.17;;
32760;SDS011;19126;47.472;7.850;2024-01-30T08:10:46;57.72;;;31.10;;
32760;SDS011;19126;47.472;7.850;2024-01-30T08:13:15;57.65;;;31.27;;
32760;SDS011;19126;47.472;7.850;2024-01-30T08:15:42;66.65;;;31.58;;
32760;SDS011;19126;47.472;7.850;2024-01-30T08:18:09;54.20;;;28.27;;
32760;SDS011;19126;47.472;7.850;2024-01-30T08:20:37;53.20;;;29.48;;
32760;SDS011;19126;47.472;7.850;2024-01-30T08:23:04;42.47;;;25.45;;
32760;SDS011;19126;47.472;7.850;2024-01-30T08:25:33;50.55;;;26.95;;
32760;SDS011;19126;47.472;7.850;2024-01-30T08:28:01;53.03;;;29.58;;
32760;SDS011;19126;47.472;7.850;2024-01-30T08:30:29;49.63;;;25.83;;
32760;SDS011;19126;47.472;7.850;2024-01-30T08:32:56;41.35;;;24.67;;
32760;SDS011;19126;47.472;7.850;2024-01-30T08:35:24;44.58;;;25.02;;
32760;SDS011;19126;47.472;7.850;2024-01-30T08:37:51;40.28;;;24.63;;
32760;SDS011;19126;47.472;7.850;2024-01-30T08:40:19;42.15;;;23.05;;
32760;SDS011;19126;47.472;7.850;2024-01-30T08:42:48;42.40;;;25.27;;
32760;SDS011;19126;47.472;7.850;2024-01-30T08:45:15;38.55;;;21.92;;
32760;SDS011;19126;47.472;7.850;2024-01-30T08:47:43;39.53;;;22.25;;
32760;SDS011;19126;47.472;7.850;2024-01-30T08:50:13;36.78;;;21.52;;
32760;SDS011;19126;47.472;7.850;2024-01-30T08:52:41;37.03;;;22.42;;
32760;SDS011;19126;47.472;7.850;2024-01-30T08:55:09;37.72;;;22.05;;
32760;SDS011;19126;47.472;7.850;2024-01-30T08:57:37;44.58;;;23.30;;
32760;SDS011;19126;47.472;7.850;2024-01-30T09:00:06;37.28;;;21.48;;
32760;SDS011;19126;47.472;7.850;2024-01-30T09:02:35;49.42;;;24.17;;
32760;SDS011;19126;47.472;7.850;2024-01-30T09:05:02;44.15;;;23.80;;
32760;SDS011;19126;47.472;7.850;2024-01-30T09:07:30;38.58;;;22.65;;
32760;SDS011;19126;47.472;7.850;2024-01-30T09:09:57;40.65;;;21.77;;
32760;SDS011;19126;47.472;7.850;2024-01-30T09:12:25;44.13;;;23.23;;
32760;SDS011;19126;47.472;7.850;2024-01-30T09:14:52;41.90;;;24.10;;
32760;SDS011;19126;47.472;7.850;2024-01-30T09:17:22;43.22;;;25.45;;
32760;SDS011;19126;47.472;7.850;2024-01-30T09:19:49;45.20;;;26.00;;
32760;SDS011;19126;47.472;7.850;2024-01-30T09:22:17;38.47;;;23.10;;
32760;SDS011;19126;47.472;7.850;2024-01-30T09:24:45;47.83;;;25.55;;
32760;SDS011;19126;47.472;7.850;2024-01-30T09:27:12;47.05;;;25.48;;
32760;SDS011;19126;47.472;7.850;2024-01-30T09:29:39;49.75;;;28.42;;
32760;SDS011;19126;47.472;7.850;2024-01-30T09:32:07;50.35;;;28.60;;
32760;SDS011;19126;47.472;7.850;2024-01-30T09:34:36;56.30;;;29.08;;
32760;SDS011;19126;47.472;7.850;2024-01-30T09:37:04;56.00;;;28.52;;
32760;SDS011;19126;47.472;7.850;2024-01-30T09:39:32;59.67;;;28.88;;
32760;SDS011;19126;47.472;7.850;2024-01-30T09:42:01;51.72;;;28.02;;
32760;SDS011;19126;47.472;7.850;2024-01-30T09:44:35;49.40;;;27.55;;
32760;SDS011;19126;47.472;7.850;2024-01-30T09:49:38;45.05;;;24.65;;
32760;SDS011;19126;47.472;7.850;2024-01-30T09:52:08;46.20;;;26.73;;
32760;SDS011;19126;47.472;7.850;2024-01-30T09:54:38;42.85;;;26.05;;
32760;SDS011;19126;47.472;7.850;2024-01-30T09:57:06;48.45;;;25.63;;
32760;SDS011;19126;47.472;7.850;2024-01-30T09:59:34;46.72;;;26.30;;
32760;SDS011;19126;47.472;7.850;2024-01-30T10:02:02;40.10;;;23.77;;
32760;SDS011;19126;47.472;7.850;2024-01-30T10:04:29;48.28;;;25.83;;
32760;SDS011;19126;47.472;7.850;2024-01-30T10:07:01;39.55;;;24.55;;
32760;SDS011;19126;47.472;7.850;2024-01-30T10:09:31;45.20;;;25.27;;
32760;SDS011;19126;47.472;7.850;2024-01-30T10:12:00;43.92;;;24.73;;
32760;SDS011;19126;47.472;7.850;2024-01-30T10:14:29;42.72;;;25.27;;
32760;SDS011;19126;47.472;7.850;2024-01-30T10:16:57;39.85;;;25.02;;
32760;SDS011;19126;47.472;7.850;2024-01-30T10:19:24;43.45;;;23.98;;
32760;SDS011;19126;47.472;7.850;2024-01-30T10:21:52;36.65;;;23.73;;
32760;SDS011;19126;47.472;7.850;2024-01-30T10:24:25;38.20;;;22.98;;
32760;SDS011;19126;47.472;7.850;2024-01-30T10:26:54;33.80;;;23.08;;
32760;SDS011;19126;47.472;7.850;2024-01-30T10:29:22;36.63;;;22.35;;
32760;SDS011;19126;47.472;7.850;2024-01-30T10:31:57;39.15;;;22.35;;
32760;SDS011;19126;47.472;7.850;2024-01-30T10:34:25;40.85;;;21.65;;
32760;SDS011;19126;47.472;7.850;2024-01-30T10:36:55;32.92;;;21.35;;
32760;SDS011;19126;47.472;7.850;2024-01-30T10:39:39;37.17;;;21.67;;
32760;SDS011;19126;47.472;7.850;2024-01-30T10:42:12;31.20;;;20.55;;
32760;SDS011;19126;47.472;7.850;2024-01-30T10:44:44;31.67;;;19.95;;
32760;SDS011;19126;47.472;7.850;2024-01-30T10:47:32;30.02;;;18.45;;
32760;SDS011;19126;47.472;7.850;2024-01-30T10:50:02;39.88;;;19.02;;
32760;SDS011;19126;47.472;7.850;2024-01-30T10:52:30;28.17;;;17.88;;
32760;SDS011;19126;47.472;7.850;2024-01-30T10:55:00;38.15;;;18.45;;
32760;SDS011;19126;47.472;7.850;2024-01-30T10:57:31;30.48;;;18.15;;
32760;SDS011;19126;47.472;7.850;2024-01-30T11:00:02;29.33;;;17.23;;
32760;SDS011;19126;47.472;7.850;2024-01-30T11:02:35;39.45;;;21.88;;
32760;SDS011;19126;47.472;7.850;2024-01-30T11:05:05;37.25;;;20.75;;
32760;SDS011;19126;47.472;7.850;2024-01-30T11:07:33;36.33;;;21.27;;
32760;SDS011;19126;47.472;7.850;2024-01-30T11:10:03;37.55;;;22.95;;
32760;SDS011;19126;47.472;7.850;2024-01-30T11:12:37;36.67;;;21.02;;
32760;SDS011;19126;47.472;7.850;2024-01-30T11:15:08;39.97;;;22.05;;
32760;SDS011;19126;47.472;7.850;2024-01-30T11:17:40;40.38;;;22.83;;
32760;SDS011;19126;47.472;7.850;2024-01-30T11:20:11;34.17;;;20.42;;
32760;SDS011;19126;47.472;7.850;2024-01-30T11:22:42;39.15;;;20.27;;
32760;SDS011;19126;47.472;7.850;2024-01-30T11:25:12;34.70;;;19.98;;
32760;SDS011;19126;47.472;7.850;2024-01-30T11:27:41;32.85;;;19.52;;
32760;SDS011;19126;47.472;7.850;2024-01-30T11:30:09;36.78;;;21.27;;
32760;SDS011;19126;47.472;7.850;2024-01-30T11:32:57;31.65;;;19.75;;
32760;SDS011;19126;47.472;7.850;2024-01-30T11:35:31;36.15;;;19.02;;
32760;SDS011;19126;47.472;7.850;2024-01-30T11:38:00;30.63;;;19.42;;
32760;SDS011;19126;47.472;7.850;2024-01-30T11:40:30;30.90;;;19.40;;
32760;SDS011;19126;47.472;7.850;2024-01-30T11:42:59;33.47;;;19.55;;
32760;SDS011;19126;47.472;7.850;2024-01-30T11:45:29;35.47;;;21.05;;
32760;SDS011;19126;47.472;7.850;2024-01-30T11:47:57;32.28;;;20.35;;
32760;SDS011;19126;47.472;7.850;2024-01-30T11:50:28;30.08;;;18.73;;
32760;SDS011;19126;47.472;7.850;2024-01-30T11:52:56;37.88;;;19.02;;
32760;SDS011;19126;47.472;7.850;2024-01-30T11:55:24;31.60;;;18.48;;
32760;SDS011;19126;47.472;7.850;2024-01-30T11:57:56;36.78;;;18.38;;
32760;SDS011;19126;47.472;7.850;2024-01-30T12:00:24;34.53;;;17.90;;
32760;SDS011;19126;47.472;7.850;2024-01-30T12:02:52;27.98;;;15.65;;
32760;SDS011;19126;47.472;7.850;2024-01-30T12:05:22;24.38;;;13.93;;
32760;SDS011;19126;47.472;7.850;2024-01-30T12:07:50;24.90;;;14.93;;
32760;SDS011;19126;47.472;7.850;2024-01-30T12:10:18;30.58;;;13.98;;
32760;SDS011;19126;47.472;7.850;2024-01-30T12:12:46;21.42;;;12.52;;
32760;SDS011;19126;47.472;7.850;2024-01-30T12:15:18;22.58;;;12.75;;
32760;SDS011;19126;47.472;7.850;2024-01-30T12:17:47;25.25;;;11.98;;
32760;SDS011;19126;47.472;7.850;2024-01-30T12:20:17;20.02;;;11.63;;
32760;SDS011;19126;47.472;7.850;2024-01-30T12:22:46;21.23;;;11.20;;
32760;SDS011;19126;47.472;7.850;2024-01-30T12:25:15;18.80;;;9.32;;
32760;SDS011;19126;47.472;7.850;2024-01-30T12:27:44;19.35;;;9.02;;
32760;SDS011;19126;47.472;7.850;2024-01-30T12:30:16;20.00;;;7.90;;
32760;SDS011;19126;47.472;7.850;2024-01-30T12:32:46;20.33;;;8.07;;
32760;SDS011;19126;47.472;7.850;2024-01-30T12:35:17;11.52;;;7.05;;
32760;SDS011;19126;47.472;7.850;2024-01-30T12:37:47;11.05;;;5.70;;
32760;SDS011;19126;47.472;7.850;2024-01-30T12:40:16;10.18;;;5.50;;
32760;SDS011;19126;47.472;7.850;2024-01-30T12:42:46;14.20;;;4.45;;
32760;SDS011;19126;47.472;7.850;2024-01-30T12:45:15;9.82;;;4.80;;
32760;SDS011;19126;47.472;7.850;2024-01-30T12:47:45;7.35;;;4.80;;
32760;SDS011;19126;47.472;7.850;2024-01-30T12:50:13;10.30;;;5.75;;
32760;SDS011;19126;47.472;7.850;2024-01-30T12:52:42;7.35;;;5.63;;
32760;SDS011;19126;47.472;7.850;2024-01-30T12:55:10;11.07;;;5.78;;
32760;SDS011;19126;47.472;7.850;2024-01-30T12:57:39;13.15;;;5.00;;
32760;SDS011;19126;47.472;7.850;2024-01-30T13:00:07;12.55;;;5.65;;
32760;SDS011;19126;47.472;7.850;2024-01-30T13:02:36;10.20;;;5.57;;
32760;SDS011;19126;47.472;7.850;2024-01-30T13:05:04;8.68;;;5.32;;
32760;SDS011;19126;47.472;7.850;2024-01-30T13:07:32;9.43;;;5.85;;
32760;SDS011;19126;47.472;7.850;2024-01-30T13:10:01;10.80;;;5.55;;
32760;SDS011;19126;47.472;7.850;2024-01-30T13:12:28;11.73;;;5.43;;
32760;SDS011;19126;47.472;7.850;2024-01-30T13:14:57;11.05;;;5.22;;
32760;SDS011;19126;47.472;7.850;2024-01-30T13:17:26;15.48;;;6.97;;
32760;SDS011;19126;47.472;7.850;2024-01-30T13:19:55;9.05;;;5.85;;
32760;SDS011;19126;47.472;7.850;2024-01-30T13:22:23;7.25;;;5.00;;
32760;SDS011;19126;47.472;7.850;2024-01-30T13:24:50;8.77;;;5.53;;
32760;SDS011;19126;47.472;7.850;2024-01-30T13:27:18;7.97;;;5.30;;
32760;SDS011;19126;47.472;7.850;2024-01-30T13:29:45;8.13;;;5.30;;
32760;SDS011;19126;47.472;7.850;2024-01-30T13:32:13;8.27;;;4.93;;
32760;SDS011;19126;47.472;7.850;2024-01-30T13:34:40;6.70;;;4.88;;
32760;SDS011;19126;47.472;7.850;2024-01-30T13:37:09;9.35;;;4.90;;
32760;SDS011;19126;47.472;7.850;2024-01-30T13:39:37;8.43;;;4.78;;
32760;SDS011;19126;47.472;7.850;2024-01-30T13:42:05;8.23;;;5.07;;
32760;SDS011;19126;47.472;7.850;2024-01-30T13:44:32;10.60;;;5.50;;
32760;SDS011;19126;47.472;7.850;2024-01-30T13:47:01;8.00;;;5.30;;
32760;SDS011;19126;47.472;7.850;2024-01-30T13:49:30;11.00;;;5.70;;
32760;SDS011;19126;47.472;7.850;2024-01-30T13:51:58;8.18;;;5.40;;
32760;SDS011;19126;47.472;7.850;2024-01-30T13:54:26;11.02;;;6.18;;
32760;SDS011;19126;47.472;7.850;2024-01-30T13:56:54;11.98;;;6.25;;
32760;SDS011;19126;47.472;7.850;2024-01-30T13:59:21;8.90;;;6.13;;
32760;SDS011;19126;47.472;7.850;2024-01-30T14:01:51;11.85;;;6.63;;
32760;SDS011;19126;47.472;7.850;2024-01-30T14:04:18;11.38;;;6.22;;
32760;SDS011;19126;47.472;7.850;2024-01-30T14:06:46;12.57;;;5.85;;
32760;SDS011;19126;47.472;7.850;2024-01-30T14:09:13;11.50;;;6.50;;
32760;SDS011;19126;47.472;7.850;2024-01-30T14:11:42;10.15;;;6.00;;
32760;SDS011;19126;47.472;7.850;2024-01-30T14:14:09;13.00;;;6.13;;
32760;SDS011;19126;47.472;7.850;2024-01-30T14:16:37;10.93;;;6.00;;
32760;SDS011;19126;47.472;7.850;2024-01-30T14:19:05;10.93;;;6.32;;
32760;SDS011;19126;47.472;7.850;2024-01-30T14:21:32;9.18;;;6.20;;
32760;SDS011;19126;47.472;7.850;2024-01-30T14:24:00;14.30;;;7.32;;
32760;SDS011;19126;47.472;7.850;2024-01-30T14:26:27;10.75;;;6.22;;
32760;SDS011;19126;47.472;7.850;2024-01-30T14:28:56;11.25;;;6.10;;
32760;SDS011;19126;47.472;7.850;2024-01-30T14:31:24;8.27;;;5.68;;